sensor_id;sensor_type;location;lat;lon;timestamp;temperature;humidity
46041;DHT22;31779;49.124;19.190;2023-01-15T00:02:31;-1.00;99.90
46041;DHT22;31779;49.124;19.190;2023-01-15T00:05:00;-1.00;99.90
46041;DHT22;31779;49.124;19.190;2023-01-15T00:07:30;-1.00;99.90
46041;DHT22;31779;49.124;19.190;2023-01-15T00:10:01;-0.90;99.90
46041;DHT22;31779;49.124;19.190;2023-01-15T00:12:30;-0.90;99.90
46041;DHT22;31779;49.124;19.190;2023-01-15T00:14:59;-0.90;99.90
46041;DHT22;31779;49.124;19.190;2023-01-15T00:17:29;-0.90;99.90
46041;DHT22;31779;49.124;19.190;2023-01-15T00:19:58;-0.90;99.90
46041;DHT22;31779;49.124;19.190;2023-01-15T00:22:28;-0.90;99.90
46041;DHT22;31779;49.124;19.190;2023-01-15T00:24:57;-0.90;99.90
46041;DHT22;31779;49.124;19.190;2023-01-15T00:27:45;-1.00;99.90
46041;DHT22;31779;49.124;19.190;2023-01-15T00:30:16;-1.00;99.90
46041;DHT22;31779;49.124;19.190;2023-01-15T00:32:45;-0.90;99.90
46041;DHT22;31779;49.124;19.190;2023-01-15T00:35:17;-1.00;99.90
46041;DHT22;31779;49.124;19.190;2023-01-15T00:37:46;-0.90;99.90
46041;DHT22;31779;49.124;19.190;2023-01-15T00:40:18;-0.90;99.90
46041;DHT22;31779;49.124;19.190;2023-01-15T00:42:49;-0.90;99.90
46041;DHT22;31779;49.124;19.190;2023-01-15T00:45:21;-0.80;99.90
46041;DHT22;31779;49.124;19.190;2023-01-15T00:47:51;-0.80;99.90
46041;DHT22;31779;49.124;19.190;2023-01-15T00:50:20;-0.80;99.90
46041;DHT22;31779;49.124;19.190;2023-01-15T00:52:49;-0.80;99.90
46041;DHT22;31779;49.124;19.190;2023-01-15T00:55:19;-1.00;99.90
46041;DHT22;31779;49.124;19.190;2023-01-15T00:57:50;-0.90;99.90
46041;DHT22;31779;49.124;19.190;2023-01-15T01:00:20;-0.90;99.90
46041;DHT22;31779;49.124;19.190;2023-01-15T01:02:49;-0.90;99.90
46041;DHT22;31779;49.124;19.190;2023-01-15T01:05:19;-0.90;99.90
46041;DHT22;31779;49.124;19.190;2023-01-15T01:07:49;-0.80;99.90
46041;DHT22;31779;49.124;19.190;2023-01-15T01:10:19;-0.90;99.90
46041;DHT22;31779;49.124;19.190;2023-01-15T01:12:49;-0.90;99.90
46041;DHT22;31779;49.124;19.190;2023-01-15T01:15:20;-1.00;99.90
46041;DHT22;31779;49.124;19.190;2023-01-15T01:17:49;-0.90;99.90
46041;DHT22;31779;49.124;19.190;2023-01-15T01:20:18;-0.80;99.90
46041;DHT22;31779;49.124;19.190;2023-01-15T01:22:48;-0.80;99.90
46041;DHT22;31779;49.124;19.190;2023-01-15T01:25:17;-0.80;99.90
46041;DHT22;31779;49.124;19.190;2023-01-15T01:27:47;-0.80;99.90
46041;DHT22;31779;49.124;19.190;2023-01-15T01:30:18;-1.00;99.90
46041;DHT22;31779;49.124;19.190;2023-01-15T01:32:48;-0.90;99.90
46041;DHT22;31779;49.124;19.190;2023-01-15T01:35:17;-0.80;99.90
46041;DHT22;31779;49.124;19.190;2023-01-15T01:37:48;-0.80;99.90
46041;DHT22;31779;49.124;19.190;2023-01-15T01:40:18;-0.70;99.90
46041;DHT22;31779;49.124;19.190;2023-01-15T01:42:48;-0.80;99.90
46041;DHT22;31779;49.124;19.190;2023-01-15T01:45:22;-0.70;99.90
46041;DHT22;31779;49.124;19.190;2023-01-15T01:47:54;-0.60;99.90
46041;DHT22;31779;49.124;19.190;2023-01-15T01:50:25;-0.60;99.90
46041;DHT22;31779;49.124;19.190;2023-01-15T01:52:59;-0.60;99.90
46041;DHT22;31779;49.124;19.190;2023-01-15T01:55:30;-0.60;99.90
46041;DHT22;31779;49.124;19.190;2023-01-15T01:58:03;-0.60;99.90
46041;DHT22;31779;49.124;19.190;2023-01-15T02:00:35;-0.70;99.90
46041;DHT22;31779;49.124;19.190;2023-01-15T02:03:08;-0.80;99.90
46041;DHT22;31779;49.124;19.190;2023-01-15T02:05:39;-0.80;99.90
46041;DHT22;31779;49.124;19.190;2023-01-15T02:08:11;-0.80;99.90
46041;DHT22;31779;49.124;19.190;2023-01-15T02:10:40;-0.70;99.90
46041;DHT22;31779;49.124;19.190;2023-01-15T02:13:13;-0.70;99.90
46041;DHT22;31779;49.124;19.190;2023-01-15T02:15:48;-0.70;99.90
46041;DHT22;31779;49.124;19.190;2023-01-15T02:18:23;-0.70;99.90
46041;DHT22;31779;49.124;19.190;2023-01-15T02:21:00;-0.60;99.90
46041;DHT22;31779;49.124;19.190;2023-01-15T02:23:52;-0.60;99.90
46041;DHT22;31779;49.124;19.190;2023-01-15T02:29:55;-0.50;99.90
46041;DHT22;31779;49.124;19.190;2023-01-15T02:32:39;-0.50;99.90
46041;DHT22;31779;49.124;19.190;2023-01-15T02:35:15;-0.50;99.90
46041;DHT22;31779;49.124;19.190;2023-01-15T02:37:50;-0.40;99.90
46041;DHT22;31779;49.124;19.190;2023-01-15T02:40:23;-0.40;99.90
46041;DHT22;31779;49.124;19.190;2023-01-15T02:42:54;-0.30;99.90
46041;DHT22;31779;49.124;19.190;2023-01-15T02:45:30;-0.20;99.90
46041;DHT22;31779;49.124;19.190;2023-01-15T02:48:10;-0.20;99.90
46041;DHT22;31779;49.124;19.190;2023-01-15T02:50:43;-0.20;99.90
46041;DHT22;31779;49.124;19.190;2023-01-15T02:53:15;-0.30;99.90
46041;DHT22;31779;49.124;19.190;2023-01-15T02:55:50;-0.20;99.90
46041;DHT22;31779;49.124;19.190;2023-01-15T02:58:29;-0.20;99.90
46041;DHT22;31779;49.124;19.190;2023-01-15T03:01:08;-0.10;99.90
46041;DHT22;31779;49.124;19.190;2023-01-15T03:03:43;-0.10;99.90
46041;DHT22;31779;49.124;19.190;2023-01-15T03:06:17;-0.10;99.90
46041;DHT22;31779;49.124;19.190;2023-01-15T03:08:47;0.10;99.90
46041;DHT22;31779;49.124;19.190;2023-01-15T03:11:18;0.20;99.90
46041;DHT22;31779;49.124;19.190;2023-01-15T03:14:01;0.10;99.90
46041;DHT22;31779;49.124;19.190;2023-01-15T03:16:36;0.00;99.90
46041;DHT22;31779;49.124;19.190;2023-01-15T03:19:12;0.00;99.90
46041;DHT22;31779;49.124;19.190;2023-01-15T03:21:48;0.10;99.90
46041;DHT22;31779;49.124;19.190;2023-01-15T03:24:23;0.10;99.90
46041;DHT22;31779;49.124;19.190;2023-01-15T03:26:53;0.10;99.90
46041;DHT22;31779;49.124;19.190;2023-01-15T03:29:23;0.10;99.90
46041;DHT22;31779;49.124;19.190;2023-01-15T03:31:55;0.10;99.90
46041;DHT22;31779;49.124;19.190;2023-01-15T03:34:30;0.20;99.90
46041;DHT22;31779;49.124;19.190;2023-01-15T03:37:03;0.20;99.90
46041;DHT22;31779;49.124;19.190;2023-01-15T03:39:33;0.30;99.90
46041;DHT22;31779;49.124;19.190;2023-01-15T03:42:28;0.20;99.90
46041;DHT22;31779;49.124;19.190;2023-01-15T03:45:07;0.20;99.90
46041;DHT22;31779;49.124;19.190;2023-01-15T03:47:48;0.20;99.90
46041;DHT22;31779;49.124;19.190;2023-01-15T03:50:28;0.20;99.90
46041;DHT22;31779;49.124;19.190;2023-01-15T03:53:07;0.20;99.90
46041;DHT22;31779;49.124;19.190;2023-01-15T03:55:49;0.20;99.90
46041;DHT22;31779;49.124;19.190;2023-01-15T03:58:24;0.30;99.90
46041;DHT22;31779;49.124;19.190;2023-01-15T04:00:59;0.10;99.90
46041;DHT22;31779;49.124;19.190;2023-01-15T04:03:32;0.20;99.90
46041;DHT22;31779;49.124;19.190;2023-01-15T04:06:04;0.10;99.90
46041;DHT22;31779;49.124;19.190;2023-01-15T04:08:37;0.10;99.90
46041;DHT22;31779;49.124;19.190;2023-01-15T04:11:08;0.10;99.90
46041;DHT22;31779;49.124;19.190;2023-01-15T04:13:46;0.10;99.90
46041;DHT22;31779;49.124;19.190;2023-01-15T04:16:41;0.10;99.90
46041;DHT22;31779;49.124;19.190;2023-01-15T04:19:13;0.00;99.90
46041;DHT22;31779;49.124;19.190;2023-01-15T04:22:03;0.00;99.90
46041;DHT22;31779;49.124;19.190;2023-01-15T04:24:33;0.00;99.90
46041;DHT22;31779;49.124;19.190;2023-01-15T04:27:02;-0.10;99.90
46041;DHT22;31779;49.124;19.190;2023-01-15T04:29:31;0.00;99.90
46041;DHT22;31779;49.124;19.190;2023-01-15T04:32:02;0.10;99.90
46041;DHT22;31779;49.124;19.190;2023-01-15T04:34:33;0.10;99.90
46041;DHT22;31779;49.124;19.190;2023-01-15T04:37:02;0.30;99.90
46041;DHT22;31779;49.124;19.190;2023-01-15T04:39:32;0.30;99.90
46041;DHT22;31779;49.124;19.190;2023-01-15T04:42:01;0.30;99.90
46041;DHT22;31779;49.124;19.190;2023-01-15T04:44:47;0.30;99.90
46041;DHT22;31779;49.124;19.190;2023-01-15T04:47:17;0.40;99.90
46041;DHT22;31779;49.124;19.190;2023-01-15T04:49:47;0.20;99.90
46041;DHT22;31779;49.124;19.190;2023-01-15T04:52:17;0.30;99.90
46041;DHT22;31779;49.124;19.190;2023-01-15T04:54:46;0.10;99.90
46041;DHT22;31779;49.124;19.190;2023-01-15T04:57:15;0.20;99.90
46041;DHT22;31779;49.124;19.190;2023-01-15T04:59:44;0.40;99.90
46041;DHT22;31779;49.124;19.190;2023-01-15T05:02:14;0.60;99.90
46041;DHT22;31779;49.124;19.190;2023-01-15T05:04:43;0.70;99.90
46041;DHT22;31779;49.124;19.190;2023-01-15T05:07:14;0.60;99.90
46041;DHT22;31779;49.124;19.190;2023-01-15T05:09:43;0.60;99.90
46041;DHT22;31779;49.124;19.190;2023-01-15T05:12:12;0.60;99.90
46041;DHT22;31779;49.124;19.190;2023-01-15T05:14:41;0.50;99.90
46041;DHT22;31779;49.124;19.190;2023-01-15T05:17:10;0.60;99.90
46041;DHT22;31779;49.124;19.190;2023-01-15T05:19:41;0.50;99.90
46041;DHT22;31779;49.124;19.190;2023-01-15T05:22:11;0.50;99.90
46041;DHT22;31779;49.124;19.190;2023-01-15T05:24:42;0.50;99.90
46041;DHT22;31779;49.124;19.190;2023-01-15T05:27:11;0.50;99.90
46041;DHT22;31779;49.124;19.190;2023-01-15T05:29:40;0.40;99.90
46041;DHT22;31779;49.124;19.190;2023-01-15T05:32:09;0.50;99.90
46041;DHT22;31779;49.124;19.190;2023-01-15T05:34:38;0.70;99.90
46041;DHT22;31779;49.124;19.190;2023-01-15T05:37:08;0.70;99.90
46041;DHT22;31779;49.124;19.190;2023-01-15T05:39:37;0.90;99.90
46041;DHT22;31779;49.124;19.190;2023-01-15T05:42:08;0.80;99.90
46041;DHT22;31779;49.124;19.190;2023-01-15T05:44:37;0.90;99.90
46041;DHT22;31779;49.124;19.190;2023-01-15T05:47:06;0.80;99.90
46041;DHT22;31779;49.124;19.190;2023-01-15T05:49:35;0.70;99.90
46041;DHT22;31779;49.124;19.190;2023-01-15T05:52:05;0.70;99.90
46041;DHT22;31779;49.124;19.190;2023-01-15T05:54:35;0.60;99.90
46041;DHT22;31779;49.124;19.190;2023-01-15T05:57:05;0.50;99.90
46041;DHT22;31779;49.124;19.190;2023-01-15T05:59:36;0.50;99.90
46041;DHT22;31779;49.124;19.190;2023-01-15T06:02:05;0.70;99.90
46041;DHT22;31779;49.124;19.190;2023-01-15T06:04:35;0.70;99.90
46041;DHT22;31779;49.124;19.190;2023-01-15T06:07:04;0.60;99.90
46041;DHT22;31779;49.124;19.190;2023-01-15T06:09:33;0.60;99.90
46041;DHT22;31779;49.124;19.190;2023-01-15T06:12:03;0.50;99.90
46041;DHT22;31779;49.124;19.190;2023-01-15T06:14:32;0.50;99.90
46041;DHT22;31779;49.124;19.190;2023-01-15T06:17:03;0.80;99.90
46041;DHT22;31779;49.124;19.190;2023-01-15T06:19:32;0.80;99.90
46041;DHT22;31779;49.124;19.190;2023-01-15T06:22:02;0.90;99.90
46041;DHT22;31779;49.124;19.190;2023-01-15T06:24:31;0.90;99.90
46041;DHT22;31779;49.124;19.190;2023-01-15T06:27:00;1.00;99.90
46041;DHT22;31779;49.124;19.190;2023-01-15T06:29:29;1.10;99.90
46041;DHT22;31779;49.124;19.190;2023-01-15T06:31:58;1.20;99.90
46041;DHT22;31779;49.124;19.190;2023-01-15T06:34:30;1.20;99.90
46041;DHT22;31779;49.124;19.190;2023-01-15T06:36:59;1.30;99.90
46041;DHT22;31779;49.124;19.190;2023-01-15T06:39:29;1.30;99.90
46041;DHT22;31779;49.124;19.190;2023-01-15T06:41:58;1.60;99.90
46041;DHT22;31779;49.124;19.190;2023-01-15T06:44:45;1.30;99.90
46041;DHT22;31779;49.124;19.190;2023-01-15T06:47:32;1.30;99.90
46041;DHT22;31779;49.124;19.190;2023-01-15T06:50:03;1.30;99.90
46041;DHT22;31779;49.124;19.190;2023-01-15T06:52:33;1.20;99.90
46041;DHT22;31779;49.124;19.190;2023-01-15T06:55:03;1.30;99.90
46041;DHT22;31779;49.124;19.190;2023-01-15T06:57:32;1.50;99.90
46041;DHT22;31779;49.124;19.190;2023-01-15T07:00:02;1.60;99.90
46041;DHT22;31779;49.124;19.190;2023-01-15T07:02:31;1.70;99.90
46041;DHT22;31779;49.124;19.190;2023-01-15T07:05:03;1.70;99.90
46041;DHT22;31779;49.124;19.190;2023-01-15T07:07:33;1.70;99.90
46041;DHT22;31779;49.124;19.190;2023-01-15T07:10:03;1.90;99.90
46041;DHT22;31779;49.124;19.190;2023-01-15T07:12:33;2.10;99.90
46041;DHT22;31779;49.124;19.190;2023-01-15T07:15:04;2.00;99.90
46041;DHT22;31779;49.124;19.190;2023-01-15T07:17:34;2.20;99.90
46041;DHT22;31779;49.124;19.190;2023-01-15T07:20:07;2.20;99.90
46041;DHT22;31779;49.124;19.190;2023-01-15T07:22:36;2.30;99.90
46041;DHT22;31779;49.124;19.190;2023-01-15T07:25:07;2.30;99.90
46041;DHT22;31779;49.124;19.190;2023-01-15T07:27:37;2.30;99.90
46041;DHT22;31779;49.124;19.190;2023-01-15T07:30:08;2.30;99.90
46041;DHT22;31779;49.124;19.190;2023-01-15T07:32:38;2.40;99.90
46041;DHT22;31779;49.124;19.190;2023-01-15T07:35:09;2.50;99.90
46041;DHT22;31779;49.124;19.190;2023-01-15T07:37:38;2.50;99.90
46041;DHT22;31779;49.124;19.190;2023-01-15T07:40:09;2.70;99.90
46041;DHT22;31779;49.124;19.190;2023-01-15T07:42:38;2.70;99.90
46041;DHT22;31779;49.124;19.190;2023-01-15T07:45:25;2.80;99.90
46041;DHT22;31779;49.124;19.190;2023-01-15T07:48:12;2.90;99.90
46041;DHT22;31779;49.124;19.190;2023-01-15T07:51:00;3.10;99.90
46041;DHT22;31779;49.124;19.190;2023-01-15T07:53:30;3.20;99.90
46041;DHT22;31779;49.124;19.190;2023-01-15T07:56:00;3.20;99.90
46041;DHT22;31779;49.124;19.190;2023-01-15T07:58:29;3.40;99.90
46041;DHT22;31779;49.124;19.190;2023-01-15T08:00:59;3.60;99.90
46041;DHT22;31779;49.124;19.190;2023-01-15T08:03:41;3.80;99.90
46041;DHT22;31779;49.124;19.190;2023-01-15T08:06:14;4.00;99.90
46041;DHT22;31779;49.124;19.190;2023-01-15T08:08:43;4.40;99.90
46041;DHT22;31779;49.124;19.190;2023-01-15T08:11:13;4.50;99.90
46041;DHT22;31779;49.124;19.190;2023-01-15T08:14:00;4.70;99.90
46041;DHT22;31779;49.124;19.190;2023-01-15T08:16:47;4.80;99.90
46041;DHT22;31779;49.124;19.190;2023-01-15T08:19:17;4.90;99.90
46041;DHT22;31779;49.124;19.190;2023-01-15T08:21:48;4.80;99.90
46041;DHT22;31779;49.124;19.190;2023-01-15T08:24:18;4.60;99.90
46041;DHT22;31779;49.124;19.190;2023-01-15T08:26:48;4.70;99.90
46041;DHT22;31779;49.124;19.190;2023-01-15T08:29:17;4.60;99.90
46041;DHT22;31779;49.124;19.190;2023-01-15T08:31:47;4.60;99.90
46041;DHT22;31779;49.124;19.190;2023-01-15T08:34:16;4.50;99.90
46041;DHT22;31779;49.124;19.190;2023-01-15T08:36:46;4.60;99.90
46041;DHT22;31779;49.124;19.190;2023-01-15T08:39:18;4.40;99.90
46041;DHT22;31779;49.124;19.190;2023-01-15T08:41:47;4.30;99.90
46041;DHT22;31779;49.124;19.190;2023-01-15T08:44:17;4.10;99.90
46041;DHT22;31779;49.124;19.190;2023-01-15T08:46:49;4.10;99.90
46041;DHT22;31779;49.124;19.190;2023-01-15T08:49:19;4.10;99.90
46041;DHT22;31779;49.124;19.190;2023-01-15T08:51:49;3.90;99.90
46041;DHT22;31779;49.124;19.190;2023-01-15T08:54:21;4.00;99.90
46041;DHT22;31779;49.124;19.190;2023-01-15T08:56:52;4.00;99.90
46041;DHT22;31779;49.124;19.190;2023-01-15T08:59:22;4.10;99.90
46041;DHT22;31779;49.124;19.190;2023-01-15T09:01:52;4.10;99.90
46041;DHT22;31779;49.124;19.190;2023-01-15T09:04:22;4.10;99.90
46041;DHT22;31779;49.124;19.190;2023-01-15T09:06:52;4.10;99.90
46041;DHT22;31779;49.124;19.190;2023-01-15T09:09:23;4.00;99.90
46041;DHT22;31779;49.124;19.190;2023-01-15T09:11:53;4.00;99.90
46041;DHT22;31779;49.124;19.190;2023-01-15T09:14:23;4.10;99.90
46041;DHT22;31779;49.124;19.190;2023-01-15T09:17:13;4.10;99.90
46041;DHT22;31779;49.124;19.190;2023-01-15T09:19:43;4.70;99.90
46041;DHT22;31779;49.124;19.190;2023-01-15T09:22:13;4.90;99.90
46041;DHT22;31779;49.124;19.190;2023-01-15T09:24:44;4.70;99.90
46041;DHT22;31779;49.124;19.190;2023-01-15T09:27:15;4.70;99.90
46041;DHT22;31779;49.124;19.190;2023-01-15T09:29:45;4.70;99.90
46041;DHT22;31779;49.124;19.190;2023-01-15T09:32:15;4.50;99.90
46041;DHT22;31779;49.124;19.190;2023-01-15T09:34:45;4.40;99.90
46041;DHT22;31779;49.124;19.190;2023-01-15T09:37:14;4.60;99.90
46041;DHT22;31779;49.124;19.190;2023-01-15T09:39:47;4.80;99.90
46041;DHT22;31779;49.124;19.190;2023-01-15T09:42:31;5.10;99.90
46041;DHT22;31779;49.124;19.190;2023-01-15T09:45:14;5.10;99.90
46041;DHT22;31779;49.124;19.190;2023-01-15T09:47:49;5.60;99.90
46041;DHT22;31779;49.124;19.190;2023-01-15T09:50:28;6.20;99.90
46041;DHT22;31779;49.124;19.190;2023-01-15T09:53:09;6.30;97.30
46041;DHT22;31779;49.124;19.190;2023-01-15T09:55:46;6.30;99.90
46041;DHT22;31779;49.124;19.190;2023-01-15T09:58:20;6.50;99.90
46041;DHT22;31779;49.124;19.190;2023-01-15T10:00:51;6.60;94.20
46041;DHT22;31779;49.124;19.190;2023-01-15T10:03:32;6.90;97.40
46041;DHT22;31779;49.124;19.190;2023-01-15T10:06:10;6.90;95.50
46041;DHT22;31779;49.124;19.190;2023-01-15T10:08:43;7.50;93.90
46041;DHT22;31779;49.124;19.190;2023-01-15T10:11:28;7.50;90.70
46041;DHT22;31779;49.124;19.190;2023-01-15T10:14:14;7.30;93.20
46041;DHT22;31779;49.124;19.190;2023-01-15T10:16:46;7.40;93.20
46041;DHT22;31779;49.124;19.190;2023-01-15T10:19:17;7.40;92.90
46041;DHT22;31779;49.124;19.190;2023-01-15T10:21:51;7.00;91.80
46041;DHT22;31779;49.124;19.190;2023-01-15T10:24:27;6.30;92.40
46041;DHT22;31779;49.124;19.190;2023-01-15T10:27:06;6.20;96.80
46041;DHT22;31779;49.124;19.190;2023-01-15T10:29:43;5.60;95.60
46041;DHT22;31779;49.124;19.190;2023-01-15T10:32:22;5.80;96.20
46041;DHT22;31779;49.124;19.190;2023-01-15T10:35:22;6.00;98.90
46041;DHT22;31779;49.124;19.190;2023-01-15T10:37:59;5.80;98.80
46041;DHT22;31779;49.124;19.190;2023-01-15T10:40:38;5.80;99.90
46041;DHT22;31779;49.124;19.190;2023-01-15T10:43:18;5.50;99.90
46041;DHT22;31779;49.124;19.190;2023-01-15T10:45:51;5.20;99.90
46041;DHT22;31779;49.124;19.190;2023-01-15T10:48:28;4.80;99.90
46041;DHT22;31779;49.124;19.190;2023-01-15T10:51:01;5.20;99.90
46041;DHT22;31779;49.124;19.190;2023-01-15T10:53:37;5.20;99.90
46041;DHT22;31779;49.124;19.190;2023-01-15T10:56:15;4.80;99.90
46041;DHT22;31779;49.124;19.190;2023-01-15T10:58:53;4.90;99.90
46041;DHT22;31779;49.124;19.190;2023-01-15T11:01:26;5.00;99.90
46041;DHT22;31779;49.124;19.190;2023-01-15T11:03:57;5.00;99.90
46041;DHT22;31779;49.124;19.190;2023-01-15T11:06:30;4.80;99.90
46041;DHT22;31779;49.124;19.190;2023-01-15T11:09:00;5.00;99.90
46041;DHT22;31779;49.124;19.190;2023-01-15T11:11:40;4.90;99.90
46041;DHT22;31779;49.124;19.190;2023-01-15T11:14:36;4.90;99.90
46041;DHT22;31779;49.124;19.190;2023-01-15T11:17:24;4.70;99.90
46041;DHT22;31779;49.124;19.190;2023-01-15T11:20:19;4.60;99.90
46041;DHT22;31779;49.124;19.190;2023-01-15T11:22:50;4.80;99.90
46041;DHT22;31779;49.124;19.190;2023-01-15T11:25:31;4.60;99.90
46041;DHT22;31779;49.124;19.190;2023-01-15T11:28:04;4.60;99.90
46041;DHT22;31779;49.124;19.190;2023-01-15T11:30:37;4.70;99.90
46041;DHT22;31779;49.124;19.190;2023-01-15T11:33:21;4.60;99.90
46041;DHT22;31779;49.124;19.190;2023-01-15T11:35:52;4.30;99.90
46041;DHT22;31779;49.124;19.190;2023-01-15T11:38:26;4.30;99.90
46041;DHT22;31779;49.124;19.190;2023-01-15T11:40:58;4.60;99.90
46041;DHT22;31779;49.124;19.190;2023-01-15T11:43:29;4.80;99.90
46041;DHT22;31779;49.124;19.190;2023-01-15T11:46:26;4.90;99.90
46041;DHT22;31779;49.124;19.190;2023-01-15T11:49:15;4.70;99.90
46041;DHT22;31779;49.124;19.190;2023-01-15T11:52:05;4.40;99.90
46041;DHT22;31779;49.124;19.190;2023-01-15T11:54:41;4.50;99.90
46041;DHT22;31779;49.124;19.190;2023-01-15T11:57:22;4.50;99.90
46041;DHT22;31779;49.124;19.190;2023-01-15T11:59:53;4.40;99.90
46041;DHT22;31779;49.124;19.190;2023-01-15T12:03:03;4.70;99.90
46041;DHT22;31779;49.124;19.190;2023-01-15T12:05:35;4.60;99.90
46041;DHT22;31779;49.124;19.190;2023-01-15T12:08:17;4.70;99.90
46041;DHT22;31779;49.124;19.190;2023-01-15T12:10:54;4.60;99.90
46041;DHT22;31779;49.124;19.190;2023-01-15T12:14:00;4.60;99.90
46041;DHT22;31779;49.124;19.190;2023-01-15T12:16:45;4.70;99.90
46041;DHT22;31779;49.124;19.190;2023-01-15T12:19:21;4.80;99.90
46041;DHT22;31779;49.124;19.190;2023-01-15T12:22:27;4.60;99.90
46041;DHT22;31779;49.124;19.190;2023-01-15T12:28:01;4.90;99.90
46041;DHT22;31779;49.124;19.190;2023-01-15T12:30:38;4.80;99.90
46041;DHT22;31779;49.124;19.190;2023-01-15T12:33:19;4.90;99.90
46041;DHT22;31779;49.124;19.190;2023-01-15T12:35:57;4.90;99.90
46041;DHT22;31779;49.124;19.190;2023-01-15T12:38:40;4.80;99.90
46041;DHT22;31779;49.124;19.190;2023-01-15T12:41:15;4.80;99.90
46041;DHT22;31779;49.124;19.190;2023-01-15T12:43:51;4.80;99.90
46041;DHT22;31779;49.124;19.190;2023-01-15T12:46:41;5.00;99.90
46041;DHT22;31779;49.124;19.190;2023-01-15T12:49:24;4.80;99.90
46041;DHT22;31779;49.124;19.190;2023-01-15T12:52:03;4.50;99.90
46041;DHT22;31779;49.124;19.190;2023-01-15T12:54:38;4.40;99.90
46041;DHT22;31779;49.124;19.190;2023-01-15T12:57:17;4.40;99.90
46041;DHT22;31779;49.124;19.190;2023-01-15T12:59:57;4.20;99.90
46041;DHT22;31779;49.124;19.190;2023-01-15T13:02:39;4.20;99.90
46041;DHT22;31779;49.124;19.190;2023-01-15T13:05:16;4.30;99.90
46041;DHT22;31779;49.124;19.190;2023-01-15T13:07:52;4.20;99.90
46041;DHT22;31779;49.124;19.190;2023-01-15T13:10:25;4.10;99.90
46041;DHT22;31779;49.124;19.190;2023-01-15T13:13:00;3.90;99.90
46041;DHT22;31779;49.124;19.190;2023-01-15T13:15:33;3.80;99.90
46041;DHT22;31779;49.124;19.190;2023-01-15T13:18:14;3.90;99.90
46041;DHT22;31779;49.124;19.190;2023-01-15T13:20:47;3.80;99.90
46041;DHT22;31779;49.124;19.190;2023-01-15T13:23:31;3.80;99.90
46041;DHT22;31779;49.124;19.190;2023-01-15T13:26:22;3.80;99.90
46041;DHT22;31779;49.124;19.190;2023-01-15T13:29:05;3.70;99.90
46041;DHT22;31779;49.124;19.190;2023-01-15T13:31:56;3.60;99.90
46041;DHT22;31779;49.124;19.190;2023-01-15T13:34:35;3.70;99.90
46041;DHT22;31779;49.124;19.190;2023-01-15T13:37:16;3.70;99.90
46041;DHT22;31779;49.124;19.190;2023-01-15T13:39:50;3.60;99.90
46041;DHT22;31779;49.124;19.190;2023-01-15T13:42:23;3.60;99.90
46041;DHT22;31779;49.124;19.190;2023-01-15T13:45:32;3.60;99.90
46041;DHT22;31779;49.124;19.190;2023-01-15T13:48:07;3.50;99.90
46041;DHT22;31779;49.124;19.190;2023-01-15T13:50:42;3.50;99.90
46041;DHT22;31779;49.124;19.190;2023-01-15T13:53:26;3.40;99.90
46041;DHT22;31779;49.124;19.190;2023-01-15T13:56:00;3.60;99.90
46041;DHT22;31779;49.124;19.190;2023-01-15T13:58:37;3.60;99.90
46041;DHT22;31779;49.124;19.190;2023-01-15T14:01:22;3.60;99.90
46041;DHT22;31779;49.124;19.190;2023-01-15T14:03:59;3.50;99.90
46041;DHT22;31779;49.124;19.190;2023-01-15T14:06:37;3.40;99.90
46041;DHT22;31779;49.124;19.190;2023-01-15T14:09:10;3.50;99.90
46041;DHT22;31779;49.124;19.190;2023-01-15T14:11:55;3.50;99.90
46041;DHT22;31779;49.124;19.190;2023-01-15T14:20:38;3.30;99.90
46041;DHT22;31779;49.124;19.190;2023-01-15T14:23:21;3.30;99.90
46041;DHT22;31779;49.124;19.190;2023-01-15T14:26:01;3.30;99.90
46041;DHT22;31779;49.124;19.190;2023-01-15T14:29:01;3.20;99.90
46041;DHT22;31779;49.124;19.190;2023-01-15T14:31:38;3.10;99.90
46041;DHT22;31779;49.124;19.190;2023-01-15T14:34:15;3.30;99.90
46041;DHT22;31779;49.124;19.190;2023-01-15T14:36:50;3.20;99.90
46041;DHT22;31779;49.124;19.190;2023-01-15T14:39:37;3.20;99.90
46041;DHT22;31779;49.124;19.190;2023-01-15T14:42:14;3.10;99.90
46041;DHT22;31779;49.124;19.190;2023-01-15T14:45:07;3.10;99.90
46041;DHT22;31779;49.124;19.190;2023-01-15T14:47:43;3.00;99.90
46041;DHT22;31779;49.124;19.190;2023-01-15T14:50:29;3.00;99.90
46041;DHT22;31779;49.124;19.190;2023-01-15T14:53:30;2.90;99.90
46041;DHT22;31779;49.124;19.190;2023-01-15T14:56:09;2.80;99.90
46041;DHT22;31779;49.124;19.190;2023-01-15T14:58:47;2.90;99.90
46041;DHT22;31779;49.124;19.190;2023-01-15T15:01:34;2.80;99.90
46041;DHT22;31779;49.124;19.190;2023-01-15T15:04:12;2.90;99.90
46041;DHT22;31779;49.124;19.190;2023-01-15T15:06:46;2.80;99.90
46041;DHT22;31779;49.124;19.190;2023-01-15T15:09:26;2.70;99.90
46041;DHT22;31779;49.124;19.190;2023-01-15T15:12:05;2.70;99.90
46041;DHT22;31779;49.124;19.190;2023-01-15T15:14:56;2.70;99.90
46041;DHT22;31779;49.124;19.190;2023-01-15T15:17:37;2.50;99.90
46041;DHT22;31779;49.124;19.190;2023-01-15T15:20:27;2.50;99.90
46041;DHT22;31779;49.124;19.190;2023-01-15T15:23:03;2.40;99.90
46041;DHT22;31779;49.124;19.190;2023-01-15T15:25:37;2.50;99.90
46041;DHT22;31779;49.124;19.190;2023-01-15T15:28:10;2.50;99.90
46041;DHT22;31779;49.124;19.190;2023-01-15T15:30:42;2.50;99.90
46041;DHT22;31779;49.124;19.190;2023-01-15T15:33:17;2.50;99.90
46041;DHT22;31779;49.124;19.190;2023-01-15T15:35:51;2.50;99.90
46041;DHT22;31779;49.124;19.190;2023-01-15T15:38:24;2.40;99.90
46041;DHT22;31779;49.124;19.190;2023-01-15T15:40:56;2.40;99.90
46041;DHT22;31779;49.124;19.190;2023-01-15T15:43:33;2.50;99.90
46041;DHT22;31779;49.124;19.190;2023-01-15T15:46:27;2.50;99.90
46041;DHT22;31779;49.124;19.190;2023-01-15T15:49:16;2.50;99.90
46041;DHT22;31779;49.124;19.190;2023-01-15T15:51:48;2.40;99.90
46041;DHT22;31779;49.124;19.190;2023-01-15T15:54:20;2.50;99.90
46041;DHT22;31779;49.124;19.190;2023-01-15T15:56:55;2.60;99.90
46041;DHT22;31779;49.124;19.190;2023-01-15T15:59:30;2.60;99.90
46041;DHT22;31779;49.124;19.190;2023-01-15T16:02:17;2.60;99.90
46041;DHT22;31779;49.124;19.190;2023-01-15T16:04:52;2.70;99.90
46041;DHT22;31779;49.124;19.190;2023-01-15T16:07:27;2.50;99.90
46041;DHT22;31779;49.124;19.190;2023-01-15T16:10:03;2.50;99.90
46041;DHT22;31779;49.124;19.190;2023-01-15T16:12:40;2.40;99.90
46041;DHT22;31779;49.124;19.190;2023-01-15T16:15:15;2.50;99.90
46041;DHT22;31779;49.124;19.190;2023-01-15T16:17:48;2.50;99.90
46041;DHT22;31779;49.124;19.190;2023-01-15T16:20:20;2.60;99.90
46041;DHT22;31779;49.124;19.190;2023-01-15T16:22:54;2.50;99.90
46041;DHT22;31779;49.124;19.190;2023-01-15T16:25:28;2.50;99.90
46041;DHT22;31779;49.124;19.190;2023-01-15T16:28:00;2.50;99.90
46041;DHT22;31779;49.124;19.190;2023-01-15T16:30:32;2.40;99.90